Decoded Metar for LZZI (ZILINA in SLOVAKIA) (IATA:N/A) | Meteo·Mobile Aviation Weather
aviador You're here:

LZZI Decoded Metar

ZILINA in SLOVAKIA
Report Time2018-10-17 20:30:00
UTC Time2018-10-17 21:00:19
Flight Rules vfr VFR
WindVRB at 01 kt
Visibility9999 m
Phenomena:N/A
Clouds:N/A
Expected CloudBase > 800 ft AGL from Temp-Dew spread
CeilingNone
Temp11°C (ISA -2)
Dew Point09°C (88% RH)
AAT10.4°C
QNH1021 hPa
Density Alt673 ft
Elevation1,020 ft
Report Wrong Elevation
Raw Report
LZZI 172030Z VRB01KT CAVOK 11/09 Q1021=

Extra information for LZZI:More info

Metar Taf Metar & Taf Last 4 Metars F.Rules Stats Wind Profile Meteogram Temp Stats Airport Information Weather charts Add Link Nearby VenuesMetar ALERT Operation Metar Decoded Social comments